sensor_id;sensor_type;location;lat;lon;timestamp;P1;durP1;ratioP1;P2;durP2;ratioP2
77170;SDS011;66144;50.020;14.422;2023-02-22T00:01:15;14.18;;;9.02;;
77170;SDS011;66144;50.020;14.422;2023-02-22T00:03:59;13.85;;;8.60;;
77170;SDS011;66144;50.020;14.422;2023-02-22T00:06:25;16.08;;;10.95;;
77170;SDS011;66144;50.020;14.422;2023-02-22T00:08:51;19.42;;;9.30;;
77170;SDS011;66144;50.020;14.422;2023-02-22T00:11:17;18.40;;;9.93;;
77170;SDS011;66144;50.020;14.422;2023-02-22T00:13:44;13.52;;;9.32;;
77170;SDS011;66144;50.020;14.422;2023-02-22T00:16:17;12.95;;;8.27;;
77170;SDS011;66144;50.020;14.422;2023-02-22T00:18:44;12.93;;;7.22;;
77170;SDS011;66144;50.020;14.422;2023-02-22T00:21:10;12.98;;;7.47;;
77170;SDS011;66144;50.020;14.422;2023-02-22T00:23:38;11.27;;;6.93;;
77170;SDS011;66144;50.020;14.422;2023-02-22T00:26:10;12.20;;;7.35;;
77170;SDS011;66144;50.020;14.422;2023-02-22T00:28:37;11.93;;;6.38;;
77170;SDS011;66144;50.020;14.422;2023-02-22T00:31:03;10.90;;;6.82;;
77170;SDS011;66144;50.020;14.422;2023-02-22T00:33:30;12.55;;;7.10;;
77170;SDS011;66144;50.020;14.422;2023-02-22T00:35:57;12.15;;;7.40;;
77170;SDS011;66144;50.020;14.422;2023-02-22T00:38:23;11.88;;;7.43;;
77170;SDS011;66144;50.020;14.422;2023-02-22T00:40:49;11.70;;;7.15;;
77170;SDS011;66144;50.020;14.422;2023-02-22T00:43:15;11.68;;;6.72;;
77170;SDS011;66144;50.020;14.422;2023-02-22T00:45:41;10.50;;;6.57;;
77170;SDS011;66144;50.020;14.422;2023-02-22T00:48:06;11.90;;;7.28;;
77170;SDS011;66144;50.020;14.422;2023-02-22T00:50:33;13.02;;;6.63;;
77170;SDS011;66144;50.020;14.422;2023-02-22T00:53:00;13.70;;;7.30;;
77170;SDS011;66144;50.020;14.422;2023-02-22T00:55:32;12.75;;;6.85;;
77170;SDS011;66144;50.020;14.422;2023-02-22T00:57:59;17.60;;;8.77;;
77170;SDS011;66144;50.020;14.422;2023-02-22T01:00:30;15.00;;;8.23;;
77170;SDS011;66144;50.020;14.422;2023-02-22T01:02:58;16.73;;;8.50;;
77170;SDS011;66144;50.020;14.422;2023-02-22T01:05:25;15.77;;;7.95;;
77170;SDS011;66144;50.020;14.422;2023-02-22T01:07:52;13.23;;;7.90;;
77170;SDS011;66144;50.020;14.422;2023-02-22T01:10:23;15.32;;;8.05;;
77170;SDS011;66144;50.020;14.422;2023-02-22T01:12:51;15.77;;;8.68;;
77170;SDS011;66144;50.020;14.422;2023-02-22T01:15:20;14.52;;;7.30;;
77170;SDS011;66144;50.020;14.422;2023-02-22T01:17:47;13.20;;;7.80;;
77170;SDS011;66144;50.020;14.422;2023-02-22T01:20:14;13.35;;;7.70;;
77170;SDS011;66144;50.020;14.422;2023-02-22T01:22:44;14.27;;;7.18;;
77170;SDS011;66144;50.020;14.422;2023-02-22T01:25:14;12.80;;;7.25;;
77170;SDS011;66144;50.020;14.422;2023-02-22T01:27:40;12.40;;;7.03;;
77170;SDS011;66144;50.020;14.422;2023-02-22T01:30:06;12.55;;;7.00;;
77170;SDS011;66144;50.020;14.422;2023-02-22T01:32:36;12.65;;;6.82;;
77170;SDS011;66144;50.020;14.422;2023-02-22T01:35:04;13.32;;;7.13;;
77170;SDS011;66144;50.020;14.422;2023-02-22T01:37:32;12.55;;;7.25;;
77170;SDS011;66144;50.020;14.422;2023-02-22T01:40:01;13.30;;;7.85;;
77170;SDS011;66144;50.020;14.422;2023-02-22T01:42:28;10.27;;;6.53;;
77170;SDS011;66144;50.020;14.422;2023-02-22T01:48:03;14.43;;;7.32;;
77170;SDS011;66144;50.020;14.422;2023-02-22T01:50:33;12.20;;;7.22;;
77170;SDS011;66144;50.020;14.422;2023-02-22T01:53:02;10.27;;;6.68;;
77170;SDS011;66144;50.020;14.422;2023-02-22T01:55:30;12.40;;;6.75;;
77170;SDS011;66144;50.020;14.422;2023-02-22T01:57:57;13.75;;;7.00;;
77170;SDS011;66144;50.020;14.422;2023-02-22T02:00:22;12.45;;;6.93;;
77170;SDS011;66144;50.020;14.422;2023-02-22T02:02:53;11.18;;;6.88;;
77170;SDS011;66144;50.020;14.422;2023-02-22T02:05:26;11.15;;;6.40;;
77170;SDS011;66144;50.020;14.422;2023-02-22T02:07:55;12.40;;;7.35;;
77170;SDS011;66144;50.020;14.422;2023-02-22T02:10:22;14.60;;;8.15;;
77170;SDS011;66144;50.020;14.422;2023-02-22T02:12:48;17.10;;;7.32;;
77170;SDS011;66144;50.020;14.422;2023-02-22T02:15:16;13.75;;;8.02;;
77170;SDS011;66144;50.020;14.422;2023-02-22T02:17:41;14.95;;;8.15;;
77170;SDS011;66144;50.020;14.422;2023-02-22T02:34:38;12.00;;;6.95;;
77170;SDS011;66144;50.020;14.422;2023-02-22T02:42:35;14.77;;;8.27;;
77170;SDS011;66144;50.020;14.422;2023-02-22T02:45:08;12.38;;;6.95;;
77170;SDS011;66144;50.020;14.422;2023-02-22T02:47:39;15.82;;;7.82;;
77170;SDS011;66144;50.020;14.422;2023-02-22T02:50:10;13.73;;;8.00;;
77170;SDS011;66144;50.020;14.422;2023-02-22T02:52:43;13.70;;;7.55;;
77170;SDS011;66144;50.020;14.422;2023-02-22T02:55:11;14.48;;;7.78;;
77170;SDS011;66144;50.020;14.422;2023-02-22T02:57:37;12.20;;;7.28;;
77170;SDS011;66144;50.020;14.422;2023-02-22T03:00:05;13.68;;;7.97;;
77170;SDS011;66144;50.020;14.422;2023-02-22T03:11:52;14.18;;;7.55;;
77170;SDS011;66144;50.020;14.422;2023-02-22T03:14:40;11.90;;;6.57;;
77170;SDS011;66144;50.020;14.422;2023-02-22T03:17:17;13.70;;;7.75;;
77170;SDS011;66144;50.020;14.422;2023-02-22T03:19:48;11.07;;;6.18;;
77170;SDS011;66144;50.020;14.422;2023-02-22T03:25:23;16.20;;;7.70;;
77170;SDS011;66144;50.020;14.422;2023-02-22T03:28:07;12.02;;;6.78;;
77170;SDS011;66144;50.020;14.422;2023-02-22T03:30:49;12.05;;;6.57;;
77170;SDS011;66144;50.020;14.422;2023-02-22T03:34:01;12.30;;;7.35;;
77170;SDS011;66144;50.020;14.422;2023-02-22T03:38:45;14.25;;;7.25;;
77170;SDS011;66144;50.020;14.422;2023-02-22T03:41:13;10.60;;;6.60;;
77170;SDS011;66144;50.020;14.422;2023-02-22T03:43:43;11.80;;;6.30;;
77170;SDS011;66144;50.020;14.422;2023-02-22T03:46:12;12.93;;;6.93;;
77170;SDS011;66144;50.020;14.422;2023-02-22T03:48:44;13.13;;;7.43;;
77170;SDS011;66144;50.020;14.422;2023-02-22T03:51:18;11.23;;;6.63;;
77170;SDS011;66144;50.020;14.422;2023-02-22T03:53:44;12.90;;;7.22;;
77170;SDS011;66144;50.020;14.422;2023-02-22T03:56:12;11.35;;;6.43;;
77170;SDS011;66144;50.020;14.422;2023-02-22T03:58:44;9.77;;;5.85;;
77170;SDS011;66144;50.020;14.422;2023-02-22T04:01:14;12.57;;;7.78;;
77170;SDS011;66144;50.020;14.422;2023-02-22T04:03:40;10.38;;;6.45;;
77170;SDS011;66144;50.020;14.422;2023-02-22T04:06:06;11.27;;;6.40;;
77170;SDS011;66144;50.020;14.422;2023-02-22T04:08:32;12.27;;;6.30;;
77170;SDS011;66144;50.020;14.422;2023-02-22T04:10:58;14.82;;;7.35;;
77170;SDS011;66144;50.020;14.422;2023-02-22T04:13:23;13.98;;;6.97;;
77170;SDS011;66144;50.020;14.422;2023-02-22T04:15:48;13.07;;;6.82;;
77170;SDS011;66144;50.020;14.422;2023-02-22T04:18:14;12.68;;;7.57;;
77170;SDS011;66144;50.020;14.422;2023-02-22T04:20:39;13.00;;;7.70;;
77170;SDS011;66144;50.020;14.422;2023-02-22T04:23:05;12.73;;;6.80;;
77170;SDS011;66144;50.020;14.422;2023-02-22T04:25:30;13.80;;;7.18;;
77170;SDS011;66144;50.020;14.422;2023-02-22T04:27:55;12.38;;;6.97;;
77170;SDS011;66144;50.020;14.422;2023-02-22T04:30:21;10.93;;;6.90;;
77170;SDS011;66144;50.020;14.422;2023-02-22T04:32:47;13.10;;;6.95;;
77170;SDS011;66144;50.020;14.422;2023-02-22T04:35:13;11.93;;;6.72;;
77170;SDS011;66144;50.020;14.422;2023-02-22T04:37:39;13.20;;;7.45;;
77170;SDS011;66144;50.020;14.422;2023-02-22T04:40:04;14.57;;;7.72;;
77170;SDS011;66144;50.020;14.422;2023-02-22T04:42:34;10.95;;;6.50;;
77170;SDS011;66144;50.020;14.422;2023-02-22T04:45:00;12.57;;;7.28;;
77170;SDS011;66144;50.020;14.422;2023-02-22T04:47:27;14.60;;;7.70;;
77170;SDS011;66144;50.020;14.422;2023-02-22T04:49:53;13.18;;;7.28;;
77170;SDS011;66144;50.020;14.422;2023-02-22T04:52:18;12.80;;;7.15;;
77170;SDS011;66144;50.020;14.422;2023-02-22T04:54:43;13.60;;;7.82;;
77170;SDS011;66144;50.020;14.422;2023-02-22T04:57:09;13.65;;;8.55;;
77170;SDS011;66144;50.020;14.422;2023-02-22T04:59:34;14.70;;;8.25;;
77170;SDS011;66144;50.020;14.422;2023-02-22T05:02:00;14.20;;;8.10;;
77170;SDS011;66144;50.020;14.422;2023-02-22T05:04:25;15.13;;;8.65;;
77170;SDS011;66144;50.020;14.422;2023-02-22T05:06:50;14.05;;;8.32;;
77170;SDS011;66144;50.020;14.422;2023-02-22T05:09:16;15.68;;;8.73;;
77170;SDS011;66144;50.020;14.422;2023-02-22T05:11:41;14.60;;;8.40;;
77170;SDS011;66144;50.020;14.422;2023-02-22T05:14:06;17.55;;;9.40;;
77170;SDS011;66144;50.020;14.422;2023-02-22T05:16:32;15.88;;;8.52;;
77170;SDS011;66144;50.020;14.422;2023-02-22T05:18:57;15.32;;;9.15;;
77170;SDS011;66144;50.020;14.422;2023-02-22T05:21:23;17.73;;;8.90;;
77170;SDS011;66144;50.020;14.422;2023-02-22T05:23:48;13.75;;;7.85;;
77170;SDS011;66144;50.020;14.422;2023-02-22T05:26:13;16.48;;;8.55;;
77170;SDS011;66144;50.020;14.422;2023-02-22T05:28:39;15.90;;;9.57;;
77170;SDS011;66144;50.020;14.422;2023-02-22T05:31:04;15.48;;;8.15;;
77170;SDS011;66144;50.020;14.422;2023-02-22T05:33:31;14.27;;;8.50;;
77170;SDS011;66144;50.020;14.422;2023-02-22T05:35:56;13.85;;;7.95;;
77170;SDS011;66144;50.020;14.422;2023-02-22T05:38:22;15.25;;;7.90;;
77170;SDS011;66144;50.020;14.422;2023-02-22T05:40:47;13.57;;;8.30;;
77170;SDS011;66144;50.020;14.422;2023-02-22T05:43:13;13.23;;;8.07;;
77170;SDS011;66144;50.020;14.422;2023-02-22T05:45:39;14.35;;;8.20;;
77170;SDS011;66144;50.020;14.422;2023-02-22T05:48:06;13.82;;;8.52;;
77170;SDS011;66144;50.020;14.422;2023-02-22T05:50:31;13.65;;;8.02;;
77170;SDS011;66144;50.020;14.422;2023-02-22T05:52:57;13.45;;;8.18;;
77170;SDS011;66144;50.020;14.422;2023-02-22T05:55:23;12.38;;;7.82;;
77170;SDS011;66144;50.020;14.422;2023-02-22T05:57:49;17.13;;;7.90;;
77170;SDS011;66144;50.020;14.422;2023-02-22T06:00:19;13.50;;;8.60;;
77170;SDS011;66144;50.020;14.422;2023-02-22T06:02:53;13.90;;;7.95;;
77170;SDS011;66144;50.020;14.422;2023-02-22T06:05:26;13.77;;;7.10;;
77170;SDS011;66144;50.020;14.422;2023-02-22T06:07:52;14.23;;;7.65;;
77170;SDS011;66144;50.020;14.422;2023-02-22T06:10:18;12.32;;;7.13;;
77170;SDS011;66144;50.020;14.422;2023-02-22T06:12:44;14.00;;;8.52;;
77170;SDS011;66144;50.020;14.422;2023-02-22T06:15:10;15.27;;;8.52;;
77170;SDS011;66144;50.020;14.422;2023-02-22T06:17:35;16.13;;;8.27;;
77170;SDS011;66144;50.020;14.422;2023-02-22T06:20:01;16.05;;;8.50;;
77170;SDS011;66144;50.020;14.422;2023-02-22T06:22:29;16.65;;;7.20;;
77170;SDS011;66144;50.020;14.422;2023-02-22T06:24:58;15.48;;;8.45;;
77170;SDS011;66144;50.020;14.422;2023-02-22T06:27:23;14.68;;;8.50;;
77170;SDS011;66144;50.020;14.422;2023-02-22T06:29:49;18.92;;;8.50;;
77170;SDS011;66144;50.020;14.422;2023-02-22T06:32:14;14.02;;;7.90;;
77170;SDS011;66144;50.020;14.422;2023-02-22T06:34:39;15.73;;;7.28;;
77170;SDS011;66144;50.020;14.422;2023-02-22T06:37:05;16.08;;;7.72;;
77170;SDS011;66144;50.020;14.422;2023-02-22T06:39:31;16.42;;;8.15;;
77170;SDS011;66144;50.020;14.422;2023-02-22T06:41:58;17.83;;;7.32;;
77170;SDS011;66144;50.020;14.422;2023-02-22T06:44:23;15.15;;;7.05;;
77170;SDS011;66144;50.020;14.422;2023-02-22T06:46:49;15.90;;;7.35;;
77170;SDS011;66144;50.020;14.422;2023-02-22T06:49:15;18.58;;;8.02;;
77170;SDS011;66144;50.020;14.422;2023-02-22T06:51:41;13.70;;;7.28;;
77170;SDS011;66144;50.020;14.422;2023-02-22T06:54:07;16.17;;;8.80;;
77170;SDS011;66144;50.020;14.422;2023-02-22T06:56:32;13.93;;;7.10;;
77170;SDS011;66144;50.020;14.422;2023-02-22T06:58:57;16.52;;;7.60;;
77170;SDS011;66144;50.020;14.422;2023-02-22T07:01:23;17.42;;;7.65;;
77170;SDS011;66144;50.020;14.422;2023-02-22T07:03:48;16.58;;;8.07;;
77170;SDS011;66144;50.020;14.422;2023-02-22T07:06:14;13.82;;;8.07;;
77170;SDS011;66144;50.020;14.422;2023-02-22T07:08:39;15.60;;;8.10;;
77170;SDS011;66144;50.020;14.422;2023-02-22T07:11:05;13.30;;;8.35;;
77170;SDS011;66144;50.020;14.422;2023-02-22T07:13:30;12.23;;;7.70;;
77170;SDS011;66144;50.020;14.422;2023-02-22T07:15:55;13.38;;;7.70;;
77170;SDS011;66144;50.020;14.422;2023-02-22T07:18:21;21.17;;;8.23;;
77170;SDS011;66144;50.020;14.422;2023-02-22T07:20:48;12.75;;;7.22;;
77170;SDS011;66144;50.020;14.422;2023-02-22T07:23:14;13.07;;;7.85;;
77170;SDS011;66144;50.020;14.422;2023-02-22T07:25:40;22.23;;;9.40;;
77170;SDS011;66144;50.020;14.422;2023-02-22T07:28:06;15.68;;;7.95;;
77170;SDS011;66144;50.020;14.422;2023-02-22T07:30:32;15.68;;;7.85;;
77170;SDS011;66144;50.020;14.422;2023-02-22T07:33:03;13.85;;;7.40;;
77170;SDS011;66144;50.020;14.422;2023-02-22T07:35:31;15.57;;;7.43;;
77170;SDS011;66144;50.020;14.422;2023-02-22T07:38:00;13.18;;;8.18;;
77170;SDS011;66144;50.020;14.422;2023-02-22T07:40:27;15.23;;;8.50;;
77170;SDS011;66144;50.020;14.422;2023-02-22T07:45:24;13.52;;;8.25;;
77170;SDS011;66144;50.020;14.422;2023-02-22T07:47:50;17.55;;;8.32;;
77170;SDS011;66144;50.020;14.422;2023-02-22T07:50:16;14.98;;;7.65;;
77170;SDS011;66144;50.020;14.422;2023-02-22T07:52:46;16.33;;;9.23;;
77170;SDS011;66144;50.020;14.422;2023-02-22T07:55:16;16.13;;;8.50;;
77170;SDS011;66144;50.020;14.422;2023-02-22T07:57:46;13.02;;;8.27;;
77170;SDS011;66144;50.020;14.422;2023-02-22T08:00:13;14.32;;;9.10;;
77170;SDS011;66144;50.020;14.422;2023-02-22T08:02:45;17.77;;;8.15;;
77170;SDS011;66144;50.020;14.422;2023-02-22T08:05:10;15.80;;;8.90;;
77170;SDS011;66144;50.020;14.422;2023-02-22T08:07:36;15.20;;;8.80;;
77170;SDS011;66144;50.020;14.422;2023-02-22T08:10:03;15.57;;;8.52;;
77170;SDS011;66144;50.020;14.422;2023-02-22T08:12:31;17.00;;;9.38;;
77170;SDS011;66144;50.020;14.422;2023-02-22T08:14:57;14.45;;;8.77;;
77170;SDS011;66144;50.020;14.422;2023-02-22T08:17:23;15.80;;;9.25;;
77170;SDS011;66144;50.020;14.422;2023-02-22T08:19:48;16.42;;;9.15;;
77170;SDS011;66144;50.020;14.422;2023-02-22T08:22:13;17.48;;;9.60;;
77170;SDS011;66144;50.020;14.422;2023-02-22T08:24:39;16.33;;;8.77;;
77170;SDS011;66144;50.020;14.422;2023-02-22T08:27:04;13.93;;;8.20;;
77170;SDS011;66144;50.020;14.422;2023-02-22T08:29:30;18.38;;;8.30;;
77170;SDS011;66144;50.020;14.422;2023-02-22T08:31:58;16.65;;;8.38;;
77170;SDS011;66144;50.020;14.422;2023-02-22T08:34:24;15.43;;;8.93;;
77170;SDS011;66144;50.020;14.422;2023-02-22T08:36:50;13.55;;;8.00;;
77170;SDS011;66144;50.020;14.422;2023-02-22T08:39:15;17.60;;;9.57;;
77170;SDS011;66144;50.020;14.422;2023-02-22T08:41:41;15.40;;;8.30;;
77170;SDS011;66144;50.020;14.422;2023-02-22T08:44:06;15.43;;;8.50;;
77170;SDS011;66144;50.020;14.422;2023-02-22T08:46:32;14.05;;;8.70;;
77170;SDS011;66144;50.020;14.422;2023-02-22T08:48:57;15.40;;;9.15;;
77170;SDS011;66144;50.020;14.422;2023-02-22T08:51:22;14.73;;;8.30;;
77170;SDS011;66144;50.020;14.422;2023-02-22T08:53:48;15.60;;;8.23;;
77170;SDS011;66144;50.020;14.422;2023-02-22T08:56:14;14.73;;;8.95;;
77170;SDS011;66144;50.020;14.422;2023-02-22T08:58:39;15.50;;;9.13;;
77170;SDS011;66144;50.020;14.422;2023-02-22T09:01:05;13.63;;;8.55;;
77170;SDS011;66144;50.020;14.422;2023-02-22T09:03:30;15.93;;;8.27;;
77170;SDS011;66144;50.020;14.422;2023-02-22T09:05:55;17.02;;;8.98;;
77170;SDS011;66144;50.020;14.422;2023-02-22T09:08:23;15.27;;;8.57;;
77170;SDS011;66144;50.020;14.422;2023-02-22T09:10:49;14.55;;;8.60;;
77170;SDS011;66144;50.020;14.422;2023-02-22T09:13:15;15.02;;;8.35;;
77170;SDS011;66144;50.020;14.422;2023-02-22T09:15:40;14.80;;;9.10;;
77170;SDS011;66144;50.020;14.422;2023-02-22T09:18:07;17.77;;;10.20;;
77170;SDS011;66144;50.020;14.422;2023-02-22T09:20:35;14.00;;;7.88;;
77170;SDS011;66144;50.020;14.422;2023-02-22T09:23:01;15.55;;;8.85;;
77170;SDS011;66144;50.020;14.422;2023-02-22T09:25:28;13.07;;;7.78;;
77170;SDS011;66144;50.020;14.422;2023-02-22T09:27:54;13.70;;;7.68;;
77170;SDS011;66144;50.020;14.422;2023-02-22T09:32:52;11.70;;;7.20;;
77170;SDS011;66144;50.020;14.422;2023-02-22T09:35:19;11.95;;;7.47;;
77170;SDS011;66144;50.020;14.422;2023-02-22T09:37:50;15.40;;;7.78;;
77170;SDS011;66144;50.020;14.422;2023-02-22T09:40:16;16.23;;;7.57;;
77170;SDS011;66144;50.020;14.422;2023-02-22T09:42:52;11.32;;;7.25;;
77170;SDS011;66144;50.020;14.422;2023-02-22T09:45:26;12.35;;;7.25;;
77170;SDS011;66144;50.020;14.422;2023-02-22T09:47:57;11.90;;;6.82;;
77170;SDS011;66144;50.020;14.422;2023-02-22T09:50:27;12.43;;;7.15;;
77170;SDS011;66144;50.020;14.422;2023-02-22T09:52:55;12.52;;;7.28;;
77170;SDS011;66144;50.020;14.422;2023-02-22T09:58:02;13.57;;;6.72;;
77170;SDS011;66144;50.020;14.422;2023-02-22T10:00:35;12.30;;;7.03;;
77170;SDS011;66144;50.020;14.422;2023-02-22T10:05:59;11.23;;;6.35;;
77170;SDS011;66144;50.020;14.422;2023-02-22T10:08:30;13.75;;;6.93;;
77170;SDS011;66144;50.020;14.422;2023-02-22T10:20:13;10.02;;;5.93;;
77170;SDS011;66144;50.020;14.422;2023-02-22T10:25:43;11.73;;;6.57;;
77170;SDS011;66144;50.020;14.422;2023-02-22T10:30:42;13.48;;;5.60;;
77170;SDS011;66144;50.020;14.422;2023-02-22T10:33:32;9.43;;;5.78;;
77170;SDS011;66144;50.020;14.422;2023-02-22T10:36:00;11.40;;;7.25;;
77170;SDS011;66144;50.020;14.422;2023-02-22T10:38:33;12.85;;;6.10;;
77170;SDS011;66144;50.020;14.422;2023-02-22T10:43:25;10.63;;;6.18;;
77170;SDS011;66144;50.020;14.422;2023-02-22T10:45:51;9.50;;;5.72;;
77170;SDS011;66144;50.020;14.422;2023-02-22T10:48:20;8.82;;;4.93;;
77170;SDS011;66144;50.020;14.422;2023-02-22T10:50:48;9.45;;;5.47;;
77170;SDS011;66144;50.020;14.422;2023-02-22T10:53:17;10.25;;;6.25;;
77170;SDS011;66144;50.020;14.422;2023-02-22T10:58:40;13.98;;;6.43;;
77170;SDS011;66144;50.020;14.422;2023-02-22T11:06:37;9.25;;;4.72;;
77170;SDS011;66144;50.020;14.422;2023-02-22T11:09:05;10.75;;;6.00;;
77170;SDS011;66144;50.020;14.422;2023-02-22T11:11:32;9.48;;;5.40;;
77170;SDS011;66144;50.020;14.422;2023-02-22T11:13:58;10.32;;;5.90;;
77170;SDS011;66144;50.020;14.422;2023-02-22T11:19:26;8.55;;;5.13;;
77170;SDS011;66144;50.020;14.422;2023-02-22T11:21:52;9.65;;;5.43;;
77170;SDS011;66144;50.020;14.422;2023-02-22T11:24:22;9.10;;;5.60;;
77170;SDS011;66144;50.020;14.422;2023-02-22T11:26:54;9.45;;;5.32;;
77170;SDS011;66144;50.020;14.422;2023-02-22T11:29:28;7.85;;;4.20;;
77170;SDS011;66144;50.020;14.422;2023-02-22T11:31:57;15.23;;;6.15;;
77170;SDS011;66144;50.020;14.422;2023-02-22T11:34:28;9.35;;;5.40;;
77170;SDS011;66144;50.020;14.422;2023-02-22T11:37:13;9.45;;;4.90;;
77170;SDS011;66144;50.020;14.422;2023-02-22T11:40:13;8.27;;;4.45;;
77170;SDS011;66144;50.020;14.422;2023-02-22T11:42:46;7.18;;;4.38;;
77170;SDS011;66144;50.020;14.422;2023-02-22T11:45:36;8.00;;;4.47;;
77170;SDS011;66144;50.020;14.422;2023-02-22T11:48:04;11.02;;;4.85;;
77170;SDS011;66144;50.020;14.422;2023-02-22T11:55:52;8.25;;;4.18;;
77170;SDS011;66144;50.020;14.422;2023-02-22T11:58:47;7.05;;;4.00;;
77170;SDS011;66144;50.020;14.422;2023-02-22T12:09:12;9.73;;;5.60;;
77170;SDS011;66144;50.020;14.422;2023-02-22T12:11:54;9.20;;;5.13;;
77170;SDS011;66144;50.020;14.422;2023-02-22T12:17:34;7.50;;;4.22;;
77170;SDS011;66144;50.020;14.422;2023-02-22T12:20:23;7.93;;;4.18;;
77170;SDS011;66144;50.020;14.422;2023-02-22T12:23:14;7.97;;;4.47;;
77170;SDS011;66144;50.020;14.422;2023-02-22T12:26:06;7.55;;;4.20;;
77170;SDS011;66144;50.020;14.422;2023-02-22T12:28:38;6.72;;;4.05;;
77170;SDS011;66144;50.020;14.422;2023-02-22T12:31:14;6.32;;;4.07;;
77170;SDS011;66144;50.020;14.422;2023-02-22T12:33:49;6.90;;;4.05;;
77170;SDS011;66144;50.020;14.422;2023-02-22T12:36:19;6.03;;;3.38;;
77170;SDS011;66144;50.020;14.422;2023-02-22T12:38:56;8.25;;;4.00;;
77170;SDS011;66144;50.020;14.422;2023-02-22T12:41:33;10.32;;;4.53;;
77170;SDS011;66144;50.020;14.422;2023-02-22T12:44:05;7.10;;;4.10;;
77170;SDS011;66144;50.020;14.422;2023-02-22T12:46:41;7.22;;;4.55;;
77170;SDS011;66144;50.020;14.422;2023-02-22T12:49:22;6.38;;;3.95;;
77170;SDS011;66144;50.020;14.422;2023-02-22T12:57:55;9.65;;;4.85;;
77170;SDS011;66144;50.020;14.422;2023-02-22T13:00:45;7.60;;;3.65;;
77170;SDS011;66144;50.020;14.422;2023-02-22T13:06:00;5.53;;;3.45;;
77170;SDS011;66144;50.020;14.422;2023-02-22T13:14:32;7.82;;;4.20;;
77170;SDS011;66144;50.020;14.422;2023-02-22T13:20:02;6.18;;;3.88;;
77170;SDS011;66144;50.020;14.422;2023-02-22T13:22:46;7.10;;;3.97;;
77170;SDS011;66144;50.020;14.422;2023-02-22T13:34:02;5.88;;;3.17;;
77170;SDS011;66144;50.020;14.422;2023-02-22T13:51:04;6.65;;;3.85;;
77170;SDS011;66144;50.020;14.422;2023-02-22T13:53:47;6.45;;;4.07;;
77170;SDS011;66144;50.020;14.422;2023-02-22T13:56:18;6.28;;;4.10;;
77170;SDS011;66144;50.020;14.422;2023-02-22T13:58:52;5.95;;;4.32;;
77170;SDS011;66144;50.020;14.422;2023-02-22T14:06:44;9.80;;;4.47;;
77170;SDS011;66144;50.020;14.422;2023-02-22T14:09:18;6.40;;;4.22;;
77170;SDS011;66144;50.020;14.422;2023-02-22T14:12:01;7.95;;;3.95;;
77170;SDS011;66144;50.020;14.422;2023-02-22T14:14:27;5.95;;;3.47;;
77170;SDS011;66144;50.020;14.422;2023-02-22T14:19:59;5.80;;;3.80;;
77170;SDS011;66144;50.020;14.422;2023-02-22T14:22:48;6.45;;;4.13;;
77170;SDS011;66144;50.020;14.422;2023-02-22T14:25:32;5.82;;;3.55;;
77170;SDS011;66144;50.020;14.422;2023-02-22T14:28:01;9.20;;;5.32;;
77170;SDS011;66144;50.020;14.422;2023-02-22T14:30:28;9.73;;;6.28;;
77170;SDS011;66144;50.020;14.422;2023-02-22T14:32:57;10.50;;;5.28;;
77170;SDS011;66144;50.020;14.422;2023-02-22T14:35:24;10.85;;;5.90;;
77170;SDS011;66144;50.020;14.422;2023-02-22T14:37:55;8.57;;;5.35;;
77170;SDS011;66144;50.020;14.422;2023-02-22T14:40:28;10.18;;;6.30;;
77170;SDS011;66144;50.020;14.422;2023-02-22T14:46:01;9.13;;;5.72;;
77170;SDS011;66144;50.020;14.422;2023-02-22T14:48:31;9.98;;;6.30;;
77170;SDS011;66144;50.020;14.422;2023-02-22T14:56:31;12.40;;;6.60;;
77170;SDS011;66144;50.020;14.422;2023-02-22T14:59:18;12.63;;;6.25;;
77170;SDS011;66144;50.020;14.422;2023-02-22T15:01:48;10.25;;;6.63;;
77170;SDS011;66144;50.020;14.422;2023-02-22T15:06:44;12.45;;;6.78;;
77170;SDS011;66144;50.020;14.422;2023-02-22T15:09:15;10.82;;;5.88;;
77170;SDS011;66144;50.020;14.422;2023-02-22T15:11:52;11.75;;;6.80;;
77170;SDS011;66144;50.020;14.422;2023-02-22T15:14:35;11.43;;;6.25;;
77170;SDS011;66144;50.020;14.422;2023-02-22T15:17:26;9.43;;;5.32;;
77170;SDS011;66144;50.020;14.422;2023-02-22T15:19:51;11.38;;;7.00;;
77170;SDS011;66144;50.020;14.422;2023-02-22T15:22:18;11.15;;;6.28;;
77170;SDS011;66144;50.020;14.422;2023-02-22T15:24:57;10.40;;;6.53;;
77170;SDS011;66144;50.020;14.422;2023-02-22T15:27:25;12.10;;;6.80;;
77170;SDS011;66144;50.020;14.422;2023-02-22T15:30:37;11.57;;;6.43;;
77170;SDS011;66144;50.020;14.422;2023-02-22T15:32:53;12.45;;;7.10;;
77170;SDS011;66144;50.020;14.422;2023-02-22T15:37:57;12.30;;;6.38;;
77170;SDS011;66144;50.020;14.422;2023-02-22T15:40:23;13.18;;;7.03;;
77170;SDS011;66144;50.020;14.422;2023-02-22T15:42:51;14.73;;;6.63;;
77170;SDS011;66144;50.020;14.422;2023-02-22T15:45:21;12.07;;;6.95;;
77170;SDS011;66144;50.020;14.422;2023-02-22T15:47:49;13.75;;;6.88;;
77170;SDS011;66144;50.020;14.422;2023-02-22T15:50:17;12.13;;;7.45;;
77170;SDS011;66144;50.020;14.422;2023-02-22T15:55:17;15.38;;;8.38;;
77170;SDS011;66144;50.020;14.422;2023-02-22T15:57:43;12.48;;;7.50;;
77170;SDS011;66144;50.020;14.422;2023-02-22T16:00:25;16.00;;;8.30;;
77170;SDS011;66144;50.020;14.422;2023-02-22T16:03:03;14.57;;;8.10;;
77170;SDS011;66144;50.020;14.422;2023-02-22T16:05:41;12.68;;;7.65;;
77170;SDS011;66144;50.020;14.422;2023-02-22T16:08:14;14.65;;;7.88;;
77170;SDS011;66144;50.020;14.422;2023-02-22T16:10:46;12.88;;;7.32;;
77170;SDS011;66144;50.020;14.422;2023-02-22T16:13:24;14.20;;;7.25;;
77170;SDS011;66144;50.020;14.422;2023-02-22T16:20:59;15.15;;;7.78;;
77170;SDS011;66144;50.020;14.422;2023-02-22T16:23:27;16.25;;;8.15;;
77170;SDS011;66144;50.020;14.422;2023-02-22T16:26:00;13.27;;;7.65;;
77170;SDS011;66144;50.020;14.422;2023-02-22T16:28:28;16.77;;;8.18;;
77170;SDS011;66144;50.020;14.422;2023-02-22T16:31:00;14.35;;;8.05;;
77170;SDS011;66144;50.020;14.422;2023-02-22T16:33:26;13.60;;;8.15;;
77170;SDS011;66144;50.020;14.422;2023-02-22T16:35:57;14.45;;;8.68;;
77170;SDS011;66144;50.020;14.422;2023-02-22T16:38:29;16.42;;;8.38;;
77170;SDS011;66144;50.020;14.422;2023-02-22T16:40:56;14.57;;;7.50;;
77170;SDS011;66144;50.020;14.422;2023-02-22T16:43:29;14.38;;;8.32;;
77170;SDS011;66144;50.020;14.422;2023-02-22T16:45:57;14.63;;;8.07;;
77170;SDS011;66144;50.020;14.422;2023-02-22T16:48:23;14.70;;;7.97;;
77170;SDS011;66144;50.020;14.422;2023-02-22T16:50:51;14.45;;;7.70;;
77170;SDS011;66144;50.020;14.422;2023-02-22T16:53:19;17.30;;;8.07;;
77170;SDS011;66144;50.020;14.422;2023-02-22T16:55:47;14.23;;;7.55;;
77170;SDS011;66144;50.020;14.422;2023-02-22T16:58:13;16.52;;;7.75;;
77170;SDS011;66144;50.020;14.422;2023-02-22T17:00:41;18.80;;;8.00;;
77170;SDS011;66144;50.020;14.422;2023-02-22T17:03:09;12.93;;;7.82;;
77170;SDS011;66144;50.020;14.422;2023-02-22T17:05:39;13.65;;;7.60;;
77170;SDS011;66144;50.020;14.422;2023-02-22T17:08:04;12.40;;;7.28;;
77170;SDS011;66144;50.020;14.422;2023-02-22T17:10:30;21.33;;;8.25;;
77170;SDS011;66144;50.020;14.422;2023-02-22T17:12:57;15.55;;;7.70;;
77170;SDS011;66144;50.020;14.422;2023-02-22T17:15:25;12.35;;;7.07;;
77170;SDS011;66144;50.020;14.422;2023-02-22T17:17:52;17.27;;;8.07;;
77170;SDS011;66144;50.020;14.422;2023-02-22T17:20:19;15.27;;;7.93;;